Sauk Centre, MN

3:49 AM CDT on October 23, 2019 (GMT -0500)
Sauk Centre

Weather History for KD39 - August, 2019

Change the Weather History Date:

Wednesday, August 21, 2019

  Actual Average (KGHW) Record (KGHW)
Temperature  
Mean Temperature 61 °F -  
Max Temperature 72 °F 78 °F 92 °F (1972)
Min Temperature 50 °F 57 °F 39 °F (2004)
Degree Days  
Heating Degree Days 4    
Growing Degree Days 11 (Base 50)    
Moisture  
Dew Point 52 °F    
Average Humidity 71    
Maximum Humidity 99    
Minimum Humidity 42    
Precipitation  
Precipitation 0.00 in - - ()
Sea Level Pressure  
Sea Level Pressure 30.09 in    
Wind  
Wind Speed 5 mph ()    
Max Wind Speed 16 mph    
Max Gust Speed 20 mph    
Visibility 10.0 miles    
Events      
Averages and records for this station are not official NWS values.
T = Trace of Precipitation, MM = Missing Value Source: Averaged Metar Reports

Daily Weather History Graph

Daily Weather History Graph

Search for Another Location

Airport or City:

Astronomy

Aug. 21, 2019 Rise Set
Actual Time 6:27 AM CDT 8:17 PM CDT
Civil Twilight 5:55 AM CDT 8:49 PM CDT
Nautical Twilight 5:16 AM CDT 9:28 PM CDT
Astronomical Twilight 4:33 AM CDT 10:10 PM CDT
Moon 11:17 PM CDT (8/21) 12:20 PM CDT (8/21)
Length of Visible Light 14h 54m
Length of Day
13h 50m
Waning Gibbous, 69% of the Moon is Illuminated
Aug 21
Waning Gibbous
Aug 23
Last Quarter
Aug 30
New
Sep 5
First Quarter
Sep 13
Full

Hourly Weather History & Observations

Time (CDT) Temp. Dew Point Humidity Pressure Visibility Wind Dir Wind Speed Gust Speed Precip Events Conditions
12:15 AM 61.2 °F 57.2 °F 87% 30.09 in 10.0 mi NW 5.8 mph - N/A   Clear
12:16 AM 61.0 °F 57.2 °F 87% 30.09 in 10.0 mi NW 5.8 mph - N/A   Clear
12:39 AM 60.1 °F 56.5 °F 88% 30.09 in 10.0 mi NW 6.9 mph - N/A   Clear
12:57 AM 59.9 °F 56.3 °F 88% 30.09 in 10.0 mi NNW 5.8 mph - N/A   Clear
1:16 AM 59.0 °F 55.4 °F 88% 30.10 in 10.0 mi NW 5.8 mph - N/A   Clear
1:35 AM 58.6 °F 54.9 °F 87% 30.10 in 10.0 mi NNW 3.5 mph - N/A   Clear
1:36 AM 58.5 °F 54.9 °F 88% 30.10 in 10.0 mi NNW 3.5 mph - N/A   Clear
1:55 AM 57.2 °F 54.3 °F 90% 30.11 in 10.0 mi Calm Calm - N/A   Clear
1:56 AM 57.2 °F 54.3 °F 90% 30.11 in 10.0 mi Calm Calm - N/A   Clear
2:15 AM 56.5 °F 54.0 °F 91% 30.11 in 10.0 mi Calm Calm - N/A   Clear
2:19 AM 56.5 °F 53.8 °F 91% 30.11 in 10.0 mi Calm Calm - N/A   Clear
2:37 AM 55.2 °F 53.4 °F 94% 30.10 in 10.0 mi Calm Calm - N/A   Clear
2:55 AM 56.3 °F 53.2 °F 89% 30.10 in 10.0 mi Calm Calm - N/A   Clear
3:15 AM 55.2 °F 53.4 °F 94% 30.09 in 10.0 mi Calm Calm - N/A   Clear
3:35 AM 52.5 °F 51.4 °F 96% 30.09 in 10.0 mi Calm Calm - N/A   Clear
3:36 AM 52.5 °F 51.6 °F 97% 30.09 in 10.0 mi Calm Calm - N/A   Clear
3:55 AM 52.0 °F 51.3 °F 97% 30.08 in 10.0 mi Calm Calm - N/A   Clear
3:56 AM 52.0 °F 51.3 °F 97% 30.08 in 10.0 mi Calm Calm - N/A   Clear
4:15 AM 53.4 °F 52.5 °F 97% 30.07 in 10.0 mi Calm Calm - N/A   Clear
4:19 AM 52.7 °F 51.8 °F 97% 30.06 in 10.0 mi Calm Calm - N/A   Clear
4:37 AM 51.6 °F 50.9 °F 97% 30.05 in 10.0 mi Calm Calm - N/A   Clear
4:57 AM 50.5 °F 50.0 °F 98% 30.04 in 10.0 mi Calm Calm - N/A   Clear
5:15 AM 51.1 °F 50.4 °F 97% 30.04 in 10.0 mi Calm Calm - N/A   Clear
5:36 AM 50.7 °F 50.0 °F 97% 30.05 in 10.0 mi Calm Calm - N/A   Clear
5:55 AM 50.0 °F 49.5 °F 98% 30.07 in 10.0 mi WSW 3.5 mph - N/A   Clear
6:15 AM 50.4 °F 49.8 °F 98% 30.10 in 10.0 mi SW 4.6 mph - N/A   Clear
6:19 AM 50.2 °F 49.6 °F 98% 30.10 in 10.0 mi SSW 5.8 mph - N/A   Clear
6:38 AM 50.4 °F 50.0 °F 99% 30.11 in 10.0 mi Calm Calm - N/A   Clear
6:55 AM 51.6 °F 50.9 °F 97% 30.11 in 10.0 mi Calm Calm - N/A   Clear
7:15 AM 51.8 °F 50.9 °F 97% 30.12 in 10.0 mi Calm Calm - N/A   Clear
7:16 AM 51.8 °F 50.9 °F 97% 30.12 in 10.0 mi Calm Calm - N/A   Clear
7:35 AM 53.4 °F 51.8 °F 94% 30.12 in 10.0 mi Calm Calm - N/A   Clear
7:58 AM 54.9 °F 52.9 °F 93% 30.13 in 10.0 mi Calm Calm - N/A   Clear
8:17 AM 57.0 °F 53.6 °F 88% 30.12 in 10.0 mi West 4.6 mph - N/A   Clear
8:36 AM 59.4 °F 55.9 °F 88% 30.12 in 10.0 mi West 4.6 mph - N/A   Clear
8:55 AM 61.0 °F 56.8 °F 86% 30.11 in 10.0 mi West 9.2 mph - N/A   Clear
8:56 AM 61.2 °F 56.8 °F 86% 30.11 in 10.0 mi West 9.2 mph - N/A   Clear
9:15 AM 62.2 °F 56.3 °F 81% 30.11 in 10.0 mi West 11.5 mph - N/A   Clear
9:16 AM 62.2 °F 56.3 °F 81% 30.11 in 10.0 mi West 10.4 mph - N/A   Clear
9:38 AM 63.9 °F 56.1 °F 76% 30.10 in 10.0 mi West 9.2 mph - N/A   Clear
9:57 AM 65.1 °F 56.5 °F 74% 30.10 in 10.0 mi West 11.5 mph - N/A   Clear
10:16 AM 66.4 °F 55.4 °F 68% 30.11 in 10.0 mi WNW 11.5 mph - N/A   Clear
10:35 AM 67.8 °F 54.5 °F 62% 30.11 in 10.0 mi WNW 11.5 mph - N/A   Clear
10:36 AM 68.0 °F 54.3 °F 62% 30.11 in 10.0 mi WNW 11.5 mph - N/A   Clear
10:55 AM 68.4 °F 53.1 °F 58% 30.11 in 10.0 mi West 11.5 mph 17.3 mph N/A   Clear
11:18 AM 69.8 °F 51.8 °F 53% 30.10 in 10.0 mi NW 12.7 mph 17.3 mph N/A   Clear
11:37 AM 69.4 °F 49.1 °F 48% 30.10 in 10.0 mi WNW 11.5 mph 18.4 mph N/A   Clear
11:56 AM 69.8 °F 48.9 °F 47% 30.10 in 10.0 mi NW 16.1 mph - N/A   Clear
12:15 PM 70.3 °F 48.7 °F 46% 30.10 in 10.0 mi NW 15.0 mph 19.6 mph N/A   Clear
12:35 PM 70.5 °F 49.6 °F 47% 30.10 in 10.0 mi NW 13.8 mph - N/A   Clear
12:36 PM 70.5 °F 50.0 °F 48% 30.11 in 10.0 mi NW 13.8 mph - N/A   Clear
12:59 PM 71.2 °F 50.2 °F 47% 30.09 in 10.0 mi WNW 11.5 mph - N/A   Clear
1:17 PM 70.7 °F 48.7 °F 46% 30.09 in 10.0 mi WNW 11.5 mph - N/A   Clear
1:35 PM 71.2 °F 49.5 °F 46% 30.09 in 10.0 mi WNW 11.5 mph - N/A   Clear
1:55 PM 71.8 °F 49.8 °F 46% 30.09 in 10.0 mi West 12.7 mph 18.4 mph N/A   Clear
1:56 PM 71.8 °F 49.5 °F 45% 30.09 in 10.0 mi WNW 12.7 mph 18.4 mph N/A   Clear
2:15 PM 71.2 °F 50.4 °F 48% 30.09 in 10.0 mi West 13.8 mph 17.3 mph N/A   Clear
2:16 PM 71.4 °F 50.2 °F 47% 30.09 in 10.0 mi WNW 13.8 mph 17.3 mph N/A   Clear
2:35 PM 71.6 °F 48.7 °F 44% 30.09 in 10.0 mi NW 11.5 mph - N/A   Clear
2:39 PM 72.1 °F 49.8 °F 45% 30.09 in 10.0 mi NW 11.5 mph - N/A   Clear
3:17 PM 72.1 °F 49.1 °F 44% 30.09 in 10.0 mi West 10.4 mph - N/A   Clear
3:35 PM 72.3 °F 48.4 °F 43% 30.09 in 10.0 mi NW 9.2 mph - N/A   Clear
3:55 PM 72.1 °F 48.4 °F 43% 30.08 in 10.0 mi WNW 11.5 mph 17.3 mph N/A   Clear
3:56 PM 72.1 °F 48.6 °F 43% 30.08 in 10.0 mi West 10.4 mph 17.3 mph N/A   Clear
4:15 PM 72.3 °F 50.4 °F 46% 30.08 in 10.0 mi NW 11.5 mph 17.3 mph N/A   Clear
4:16 PM 72.5 °F 50.4 °F 46% 30.08 in 10.0 mi WNW 12.7 mph 17.3 mph N/A   Clear
4:35 PM 72.3 °F 48.2 °F 42% 30.08 in 10.0 mi NW 12.7 mph - N/A   Clear
4:40 PM 71.8 °F 48.6 °F 44% 30.08 in 10.0 mi NNW 10.4 mph - N/A   Clear
4:57 PM 72.5 °F 49.8 °F 45% 30.08 in 10.0 mi WNW 12.7 mph - N/A   Scattered Clouds
5:15 PM 71.8 °F 48.7 °F 44% 30.07 in 10.0 mi NW 11.5 mph 17.3 mph N/A   Clear
5:35 PM 72.0 °F 48.9 °F 44% 30.07 in 10.0 mi WNW 9.2 mph - N/A   Clear
5:36 PM 72.0 °F 49.1 °F 44% 30.07 in 10.0 mi WNW 10.4 mph - N/A   Clear
5:55 PM 71.6 °F 48.7 °F 44% 30.06 in 10.0 mi NW 11.5 mph 18.4 mph N/A   Clear
5:56 PM 71.4 °F 48.7 °F 45% 30.07 in 10.0 mi NW 11.5 mph 18.4 mph N/A   Clear
6:18 PM 71.1 °F 48.9 °F 45% 30.06 in 10.0 mi WNW 11.5 mph - N/A   Clear
6:36 PM 70.9 °F 49.8 °F 47% 30.06 in 10.0 mi NW 8.1 mph - N/A   Clear
6:55 PM 69.8 °F 48.4 °F 46% 30.06 in 10.0 mi NW 11.5 mph - N/A   Clear
6:56 PM 69.8 °F 48.4 °F 46% 30.06 in 10.0 mi NW 13.8 mph - N/A   Clear
7:15 PM 68.9 °F 50.0 °F 51% 30.05 in 10.0 mi NNW 8.1 mph - N/A   Clear
7:16 PM 68.9 °F 50.0 °F 51% 30.05 in 10.0 mi NNW 8.1 mph - N/A   Clear
7:35 PM 67.6 °F 50.4 °F 54% 30.05 in 10.0 mi NNW 8.1 mph - N/A   Clear
7:40 PM 67.5 °F 50.0 °F 53% 30.05 in 10.0 mi NNW 5.8 mph - N/A   Clear
7:57 PM 66.2 °F 50.2 °F 56% 30.05 in 10.0 mi NNW 5.8 mph - N/A   Clear
8:16 PM 64.9 °F 50.4 °F 59% 30.05 in 10.0 mi NNW 5.8 mph - N/A   Clear
8:35 PM 63.1 °F 51.1 °F 65% 30.06 in 10.0 mi Calm Calm - N/A   Clear
8:36 PM 63.3 °F 51.1 °F 64% 30.06 in 10.0 mi Calm Calm - N/A   Clear
8:55 PM 63.1 °F 50.9 °F 64% 30.06 in 10.0 mi Calm Calm - N/A   Clear
8:56 PM 63.1 °F 50.9 °F 64% 30.06 in 10.0 mi Calm Calm - N/A   Clear
9:15 PM 61.9 °F 51.1 °F 68% 30.07 in 10.0 mi NNW 3.5 mph - N/A   Clear
9:16 PM 61.9 °F 51.1 °F 68% 30.07 in 10.0 mi NNW 3.5 mph - N/A   Clear
9:35 PM 57.0 °F 52.7 °F 85% 30.08 in 10.0 mi Calm Calm - N/A   Clear
9:39 PM 56.5 °F 52.7 °F 87% 30.08 in 10.0 mi Calm Calm - N/A   Clear
9:57 PM 56.5 °F 51.8 °F 84% 30.08 in 10.0 mi Calm Calm - N/A   Clear
10:16 PM 55.9 °F 52.0 °F 87% 30.09 in 10.0 mi Calm Calm - N/A   Clear
10:35 PM 55.9 °F 52.0 °F 87% 30.09 in 10.0 mi Calm Calm - N/A   Clear
10:36 PM 55.9 °F 52.0 °F 87% 30.09 in 10.0 mi Calm Calm - N/A   Clear
10:55 PM 54.5 °F 51.8 °F 91% 30.09 in 10.0 mi Calm Calm - N/A   Clear
10:56 PM 54.5 °F 51.8 °F 91% 30.09 in 10.0 mi Calm Calm - N/A   Clear
11:15 PM 54.5 °F 51.6 °F 90% 30.09 in 10.0 mi Calm Calm - N/A   Clear
11:37 PM 54.1 °F 51.4 °F 91% 30.09 in 10.0 mi Calm Calm - N/A   Clear